Time;durP1;ratioP1;P1;durP2;ratioP2;P2;SDS_P1;SDS_P2;PMS_P1;PMS_P2;Temp;Humidity;BMP_temperature;BMP_pressure;BME280_temperature;BME280_humidity;BME280_pressure;Samples;Min_cycle;Max_cycle;Signal;HPM_P1;HPM_P2
2021/12/11 00:02:19;;;;;;;0.80;0.80;;;16.20;67.20;;;;;;5046842;28;45166;-68
2021/12/11 00:04:49;;;;;;;0.60;0.60;;;16.10;67.20;;;;;;5046458;28;43992;-70
2021/12/11 00:07:18;;;;;;;0.50;0.50;;;16.10;67.30;;;;;;5047196;28;43440;-69
2021/12/11 00:09:49;;;;;;;0.70;0.70;;;16.10;67.40;;;;;;5047171;28;44043;-69
2021/12/11 00:12:19;;;;;;;0.80;0.80;;;16.10;67.50;;;;;;5046708;28;43996;-69
2021/12/11 00:14:49;;;;;;;0.80;0.80;;;16.20;67.90;;;;;;5046616;28;43745;-69
2021/12/11 00:17:20;;;;;;;0.80;0.80;;;16.30;67.00;;;;;;5046786;28;43964;-69
2021/12/11 00:19:48;;;;;;;0.60;0.60;;;16.30;66.90;;;;;;5047313;28;43914;-70
2021/12/11 00:22:17;;;;;;;0.70;0.70;;;16.30;67.00;;;;;;5046279;28;45134;-70
2021/12/11 00:24:46;;;;;;;0.67;0.67;;;16.20;67.00;;;;;;5046599;28;44024;-68
2021/12/11 00:27:16;;;;;;;0.80;0.80;;;16.20;67.10;;;;;;5046695;28;44023;-69
2021/12/11 00:29:44;;;;;;;0.70;0.70;;;16.20;67.20;;;;;;5028960;28;43879;-69
2021/12/11 00:32:13;;;;;;;0.70;0.70;;;16.20;67.30;;;;;;5046595;28;44009;-69
2021/12/11 00:34:43;;;;;;;0.70;0.70;;;16.20;67.40;;;;;;5046537;28;44112;-69
2021/12/11 00:37:12;;;;;;;0.70;0.70;;;16.10;67.40;;;;;;5046627;28;43914;-69
2021/12/11 00:39:47;;;;;;;0.70;0.70;;;16.10;67.50;;;;;;5046790;28;43989;-69
2021/12/11 00:42:16;;;;;;;0.70;0.70;;;16.10;67.50;;;;;;5046571;28;44043;-68
2021/12/11 00:44:46;;;;;;;0.70;0.70;;;16.10;67.60;;;;;;5046463;28;43358;-68
2021/12/11 00:47:15;;;;;;;0.60;0.60;;;16.00;67.60;;;;;;5046529;28;43833;-70
2021/12/11 00:49:48;;;;;;;0.70;0.70;;;16.10;67.70;;;;;;5046876;28;43578;-69
2021/12/11 00:52:17;;;;;;;0.70;0.70;;;16.10;67.70;;;;;;5046221;28;44107;-70
2021/12/11 00:54:46;;;;;;;0.80;0.80;;;16.20;67.50;;;;;;5046361;28;43953;-69
2021/12/11 00:57:14;;;;;;;0.73;0.73;;;16.30;67.10;;;;;;5046338;28;44008;-69
2021/12/11 00:59:42;;;;;;;0.63;0.63;;;16.40;66.60;;;;;;5046778;28;43946;-69
2021/12/11 01:02:10;;;;;;;0.70;0.70;;;16.50;66.40;;;;;;5045946;28;44034;-69
2021/12/11 01:04:41;;;;;;;0.80;0.80;;;16.50;66.30;;;;;;5045362;28;44084;-69
2021/12/11 01:07:16;;;;;;;0.70;0.70;;;16.40;66.40;;;;;;5046409;28;43387;-69
2021/12/11 01:09:48;;;;;;;0.80;0.80;;;16.40;66.50;;;;;;5047086;28;43413;-68
2021/12/11 01:12:20;;;;;;;0.80;0.80;;;16.30;66.70;;;;;;5046060;28;43958;-69
2021/12/11 01:14:52;;;;;;;0.50;0.50;;;16.30;66.90;;;;;;5046048;28;43847;-68
2021/12/11 01:17:31;;;;;;;0.80;0.80;;;16.20;66.90;;;;;;5046265;28;43946;-69
2021/12/11 01:20:01;;;;;;;0.70;0.70;;;16.20;67.10;;;;;;5046583;28;43937;-69
2021/12/11 01:22:33;;;;;;;0.70;0.70;;;16.20;67.20;;;;;;5045713;28;43995;-69
2021/12/11 01:25:14;;;;;;;0.70;0.70;;;16.10;67.20;;;;;;5046295;28;44020;-69
2021/12/11 01:27:43;;;;;;;0.80;0.80;;;16.10;67.30;;;;;;5049850;28;43981;-69
2021/12/11 01:30:14;;;;;;;0.90;0.90;;;16.10;67.40;;;;;;5049772;28;44386;-69
2021/12/11 01:32:42;;;;;;;0.67;0.67;;;16.10;67.50;;;;;;5042988;28;43977;-70
2021/12/11 01:35:11;;;;;;;0.67;0.67;;;16.20;68.10;;;;;;5042922;28;44011;-69
2021/12/11 01:37:39;;;;;;;0.90;0.90;;;16.30;67.00;;;;;;5042906;28;43367;-69
2021/12/11 01:40:10;;;;;;;0.53;0.53;;;16.30;66.90;;;;;;5043092;28;44012;-69
2021/12/11 01:42:39;;;;;;;0.63;0.63;;;16.30;66.90;;;;;;5042966;28;43912;-69
2021/12/11 01:45:10;;;;;;;0.80;0.80;;;16.20;66.90;;;;;;5048855;28;44123;-69
2021/12/11 01:47:39;;;;;;;0.60;0.60;;;16.20;67.10;;;;;;5049255;28;44001;-69
2021/12/11 01:50:11;;;;;;;0.70;0.70;;;16.20;67.20;;;;;;5049176;28;44226;-69
2021/12/11 01:52:41;;;;;;;0.50;0.50;;;16.20;67.30;;;;;;5048827;28;43978;-69
2021/12/11 01:55:11;;;;;;;0.60;0.60;;;16.10;67.30;;;;;;5048719;28;44059;-69
2021/12/11 01:57:39;;;;;;;0.70;0.70;;;16.10;67.40;;;;;;5048969;28;43991;-69
2021/12/11 02:00:10;;;;;;;0.70;0.70;;;16.10;67.50;;;;;;5049216;28;44183;-69
2021/12/11 02:02:40;;;;;;;0.80;0.80;;;16.10;67.60;;;;;;5045389;28;43842;-70
2021/12/11 02:05:09;;;;;;;0.70;0.70;;;16.10;67.60;;;;;;5029821;28;44286;-69
2021/12/11 02:07:38;;;;;;;0.80;0.80;;;16.00;67.60;;;;;;5048802;28;43421;-69
2021/12/11 02:10:17;;;;;;;0.70;0.70;;;16.00;67.60;;;;;;5049061;28;44238;-69
2021/12/11 02:12:45;;;;;;;0.57;0.57;;;16.00;67.70;;;;;;5048651;28;43964;-69
2021/12/11 02:15:14;;;;;;;0.70;0.70;;;16.10;68.50;;;;;;5048672;28;44027;-68
2021/12/11 02:17:45;;;;;;;0.70;0.70;;;16.20;67.40;;;;;;5048473;28;43472;-70
2021/12/11 02:20:14;;;;;;;0.77;0.77;;;16.30;67.00;;;;;;5049438;28;43941;-69
2021/12/11 02:22:47;;;;;;;0.47;0.47;;;16.50;66.70;;;;;;5048488;28;44012;-69
2021/12/11 02:25:16;;;;;;;0.77;0.77;;;16.50;66.30;;;;;;5048713;28;43956;-69
2021/12/11 02:27:47;;;;;;;0.73;0.73;;;16.50;66.20;;;;;;5048588;28;44124;-69
2021/12/11 02:30:20;;;;;;;0.90;0.90;;;16.50;66.20;;;;;;5042973;28;43859;-70
2021/12/11 02:32:50;;;;;;;0.70;0.70;;;16.40;66.40;;;;;;5011341;28;45191;-68
2021/12/11 02:35:20;;;;;;;0.60;0.60;;;16.30;66.60;;;;;;5030243;28;45216;-69
2021/12/11 02:37:53;;;;;;;0.70;0.70;;;16.30;66.70;;;;;;5047051;28;43993;-69
2021/12/11 02:40:22;;;;;;;0.57;0.57;;;16.20;66.90;;;;;;5048899;28;43406;-69
2021/12/11 02:42:52;;;;;;;0.60;0.60;;;16.20;67.00;;;;;;5047939;28;44020;-69
2021/12/11 02:45:21;;;;;;;0.70;0.70;;;16.20;67.20;;;;;;5047950;28;44016;-69
2021/12/11 02:47:52;;;;;;;0.47;0.47;;;16.20;67.30;;;;;;5048075;28;43383;-69
2021/12/11 02:50:24;;;;;;;0.70;0.70;;;16.10;67.30;;;;;;5048741;28;43865;-69
2021/12/11 02:52:55;;;;;;;0.50;0.50;;;16.10;67.40;;;;;;5048034;28;43912;-69
2021/12/11 02:55:25;;;;;;;0.57;0.57;;;16.10;67.50;;;;;;5029688;28;44453;-68
2021/12/11 02:57:57;;;;;;;0.67;0.67;;;16.20;67.30;;;;;;5047986;28;43933;-69
2021/12/11 03:00:27;;;;;;;0.90;0.90;;;16.30;67.00;;;;;;5048577;28;43938;-68
2021/12/11 03:03:02;;;;;;;0.67;0.67;;;16.30;66.80;;;;;;5047334;28;43933;-69
2021/12/11 03:05:37;;;;;;;0.60;0.60;;;16.30;66.90;;;;;;5047409;28;44019;-69
2021/12/11 03:08:08;;;;;;;0.60;0.60;;;16.20;66.90;;;;;;5048105;28;43908;-70
2021/12/11 03:10:36;;;;;;;0.70;0.70;;;16.20;67.10;;;;;;5048277;28;43762;-69
2021/12/11 03:13:04;;;;;;;0.60;0.60;;;16.20;67.20;;;;;;5047368;28;45031;-69
2021/12/11 03:15:33;;;;;;;0.80;0.80;;;16.10;67.30;;;;;;5047517;28;44022;-69
2021/12/11 03:18:01;;;;;;;0.50;0.50;;;16.10;67.40;;;;;;5047467;28;43437;-69
2021/12/11 03:20:29;;;;;;;0.80;0.80;;;16.10;67.50;;;;;;5047989;28;44080;-69
2021/12/11 03:22:57;;;;;;;0.60;0.60;;;16.10;67.60;;;;;;5047438;28;43788;-68
2021/12/11 03:25:28;;;;;;;0.70;0.70;;;16.00;67.60;;;;;;5047526;28;44000;-69
2021/12/11 03:27:56;;;;;;;0.70;0.70;;;16.00;67.70;;;;;;5047664;28;43886;-69
2021/12/11 03:30:25;;;;;;;0.77;0.77;;;16.00;67.70;;;;;;5047921;28;44038;-69
2021/12/11 03:32:55;;;;;;;0.70;0.70;;;16.00;67.80;;;;;;5047066;28;45114;-69
2021/12/11 03:35:23;;;;;;;0.63;0.63;;;16.00;68.00;;;;;;5047325;28;43979;-70
2021/12/11 03:37:51;;;;;;;0.80;0.80;;;16.00;67.80;;;;;;5047304;28;43368;-69
2021/12/11 03:40:19;;;;;;;0.70;0.70;;;16.10;67.50;;;;;;5047745;28;44249;-69
2021/12/11 03:42:49;;;;;;;0.80;0.80;;;16.20;67.20;;;;;;5046931;28;43583;-68
2021/12/11 03:45:19;;;;;;;0.70;0.70;;;16.40;66.80;;;;;;5047014;28;43378;-69
2021/12/11 03:47:49;;;;;;;0.70;0.70;;;16.40;66.40;;;;;;5046778;28;43946;-69
2021/12/11 03:50:18;;;;;;;0.70;0.70;;;16.40;66.30;;;;;;5047848;28;43441;-69
2021/12/11 03:52:47;;;;;;;0.70;0.70;;;16.40;67.10;;;;;;5046798;28;44100;-69
2021/12/11 03:55:16;;;;;;;0.90;0.90;;;16.30;66.60;;;;;;5047162;28;43941;-69
2021/12/11 03:57:45;;;;;;;0.60;0.60;;;16.30;66.80;;;;;;5047070;28;44021;-69
2021/12/11 04:00:17;;;;;;;0.70;0.70;;;16.20;66.90;;;;;;5047684;28;44043;-70
2021/12/11 04:02:45;;;;;;;0.80;0.80;;;16.20;66.90;;;;;;5044164;28;44133;-70
2021/12/11 04:05:13;;;;;;;0.70;0.70;;;16.20;67.10;;;;;;5046469;28;43455;-69
2021/12/11 04:07:42;;;;;;;0.60;0.60;;;16.10;67.10;;;;;;5047006;28;43847;-68
2021/12/11 04:10:11;;;;;;;0.67;0.67;;;16.10;67.20;;;;;;5047063;28;43910;-70
2021/12/11 04:12:39;;;;;;;0.70;0.70;;;16.10;67.30;;;;;;5046524;28;44012;-69
2021/12/11 04:15:07;;;;;;;0.63;0.63;;;16.10;67.30;;;;;;5046819;28;43794;-70
2021/12/11 04:17:37;;;;;;;0.80;0.80;;;16.10;67.40;;;;;;5046872;28;43969;-70
2021/12/11 04:20:08;;;;;;;0.63;0.63;;;16.20;67.40;;;;;;5047097;28;43586;-68
2021/12/11 04:22:36;;;;;;;0.80;0.80;;;16.20;66.90;;;;;;5046767;28;44028;-70
2021/12/11 04:25:05;;;;;;;0.70;0.70;;;16.30;66.70;;;;;;5046550;28;44138;-68
2021/12/11 04:27:33;;;;;;;0.80;0.80;;;16.30;66.80;;;;;;5046673;28;43944;-69
2021/12/11 04:30:04;;;;;;;0.97;0.97;;;16.20;66.80;;;;;;5046963;28;43583;-69
2021/12/11 04:32:33;;;;;;;1.00;1.00;;;16.20;66.80;;;;;;5046452;28;43940;-69
2021/12/11 04:35:03;;;;;;;1.60;1.50;;;16.20;66.80;;;;;;5046400;28;44052;-69
2021/12/11 04:37:31;;;;;;;1.30;1.30;;;16.10;66.80;;;;;;5046341;28;43997;-69
2021/12/11 04:40:03;;;;;;;1.50;1.40;;;16.10;67.00;;;;;;5046777;28;43986;-69
2021/12/11 04:42:42;;;;;;;2.17;1.60;;;16.10;67.10;;;;;;5046246;28;44098;-68
2021/12/11 04:45:13;;;;;;;2.03;1.77;;;16.10;67.20;;;;;;5046475;28;44103;-69
2021/12/11 04:47:46;;;;;;;2.57;2.23;;;16.10;67.30;;;;;;5046769;28;43878;-69
2021/12/11 04:50:22;;;;;;;3.33;2.37;;;16.10;67.40;;;;;;5047143;28;44017;-68
2021/12/11 04:52:54;;;;;;;2.43;2.23;;;16.00;67.40;;;;;;5046198;28;43957;-69
2021/12/11 04:55:36;;;;;;;5.97;2.83;;;16.00;67.40;;;;;;5045849;28;44021;-68
2021/12/11 04:58:25;;;;;;;5.27;3.20;;;16.00;67.70;;;;;;5046550;28;43775;-69
2021/12/11 05:01:04;;;;;;;5.80;3.10;;;16.10;67.60;;;;;;5043634;28;44031;-68
2021/12/11 05:04:00;;;;;;;6.73;3.30;;;16.20;67.20;;;;;;5049638;28;43926;-69
2021/12/11 05:06:38;;;;;;;7.73;2.70;;;16.40;66.80;;;;;;5042727;28;43853;-69
2021/12/11 05:09:27;;;;;;;5.00;2.67;;;16.50;66.40;;;;;;5045331;28;44044;-69
2021/12/11 05:12:08;;;;;;;5.63;3.10;;;16.50;66.10;;;;;;5050192;28;43391;-68
2021/12/11 05:14:36;;;;;;;4.73;2.80;;;16.50;66.10;;;;;;5049465;28;43919;-69
2021/12/11 05:17:04;;;;;;;5.27;2.90;;;16.40;66.20;;;;;;5049427;28;44137;-68
2021/12/11 05:19:32;;;;;;;4.23;2.70;;;16.30;66.40;;;;;;5042913;28;44043;-69
2021/12/11 05:22:02;;;;;;;3.40;2.90;;;16.30;66.60;;;;;;5043497;28;43653;-69
2021/12/11 05:24:30;;;;;;;3.17;2.77;;;16.30;66.80;;;;;;5038183;28;45272;-69
2021/12/11 05:26:58;;;;;;;4.63;2.80;;;16.20;66.90;;;;;;5042916;28;43906;-69
2021/12/11 05:29:26;;;;;;;4.90;3.00;;;16.20;67.00;;;;;;5043194;28;43460;-69
2021/12/11 05:31:54;;;;;;;4.97;2.97;;;16.10;67.00;;;;;;5043288;28;44007;-70
2021/12/11 05:34:22;;;;;;;4.60;3.23;;;16.10;67.00;;;;;;5042642;28;43850;-70
2021/12/11 05:36:50;;;;;;;3.27;2.73;;;16.10;67.20;;;;;;5042681;28;43788;-69
2021/12/11 05:39:20;;;;;;;3.93;2.90;;;16.10;67.40;;;;;;5011662;28;44083;-69
2021/12/11 05:41:48;;;;;;;3.83;3.17;;;16.20;67.40;;;;;;5043277;28;43760;-69
2021/12/11 05:44:16;;;;;;;3.20;2.90;;;16.30;67.00;;;;;;5049023;28;43948;-70
2021/12/11 05:46:49;;;;;;;3.33;2.70;;;16.30;66.70;;;;;;5049198;28;44280;-68
2021/12/11 05:49:17;;;;;;;4.83;3.13;;;16.30;66.60;;;;;;5049212;28;44086;-69
2021/12/11 05:51:46;;;;;;;3.97;2.93;;;16.30;66.80;;;;;;5049990;28;44148;-68
2021/12/11 05:54:17;;;;;;;3.57;3.00;;;16.20;66.80;;;;;;5030791;28;44985;-69
2021/12/11 05:56:47;;;;;;;3.93;3.10;;;16.20;67.00;;;;;;5049185;28;44029;-69
2021/12/11 05:59:17;;;;;;;3.80;3.10;;;16.20;67.20;;;;;;5048995;28;43441;-68
2021/12/11 06:01:47;;;;;;;3.20;2.90;;;16.10;67.20;;;;;;5049570;28;43964;-69
2021/12/11 06:04:18;;;;;;;3.17;2.87;;;16.10;67.40;;;;;;5048280;28;44090;-69
2021/12/11 06:06:46;;;;;;;3.03;2.73;;;16.10;67.40;;;;;;5049042;28;43377;-69
2021/12/11 06:09:16;;;;;;;3.53;2.70;;;16.00;67.40;;;;;;5049182;28;43902;-69
2021/12/11 06:11:47;;;;;;;3.20;2.90;;;16.00;67.50;;;;;;5049084;28;44060;-69
2021/12/11 06:14:17;;;;;;;4.23;3.17;;;16.00;67.50;;;;;;5048737;28;44345;-69
2021/12/11 06:16:45;;;;;;;3.27;2.77;;;16.00;67.60;;;;;;5048745;28;43857;-69
2021/12/11 06:19:13;;;;;;;3.30;2.73;;;16.00;67.70;;;;;;5048757;28;43803;-69
2021/12/11 06:21:43;;;;;;;3.23;2.83;;;16.00;67.80;;;;;;5049054;28;43811;-69
2021/12/11 06:24:13;;;;;;;3.20;2.90;;;16.10;67.50;;;;;;5048715;28;43850;-69
2021/12/11 06:26:46;;;;;;;3.07;2.77;;;16.20;67.10;;;;;;5048767;28;43895;-68
2021/12/11 06:29:16;;;;;;;3.07;2.80;;;16.40;66.70;;;;;;5048840;28;43948;-69
2021/12/11 06:31:44;;;;;;;3.17;2.87;;;16.40;66.30;;;;;;5030911;28;44231;-69
2021/12/11 06:34:12;;;;;;;3.77;3.03;;;16.40;66.20;;;;;;5048290;28;43913;-68
2021/12/11 06:36:41;;;;;;;3.23;2.93;;;16.40;66.40;;;;;;5048309;28;43930;-69
2021/12/11 06:39:16;;;;;;;3.20;2.90;;;16.30;66.50;;;;;;5048439;28;43995;-70
2021/12/11 06:41:45;;;;;;;2.67;2.47;;;16.30;66.70;;;;;;5042461;28;43907;-68
2021/12/11 06:44:13;;;;;;;2.70;2.50;;;16.30;67.60;;;;;;5020323;28;45982;-69
2021/12/11 06:46:42;;;;;;;3.93;2.80;;;16.20;66.90;;;;;;5042006;28;43361;-69
2021/12/11 06:49:10;;;;;;;3.07;2.63;;;16.20;67.10;;;;;;5042280;28;44019;-70
2021/12/11 06:51:38;;;;;;;2.83;2.60;;;16.10;67.10;;;;;;5048414;28;43968;-69
2021/12/11 06:54:07;;;;;;;2.77;2.57;;;16.10;67.20;;;;;;5047638;28;44422;-69
2021/12/11 06:56:36;;;;;;;3.10;2.87;;;16.10;67.30;;;;;;5047925;28;43897;-69
2021/12/11 06:59:04;;;;;;;4.00;3.23;;;16.10;67.40;;;;;;5029903;28;43978;-70
2021/12/11 07:01:32;;;;;;;3.03;2.83;;;16.10;67.60;;;;;;5048019;28;43468;-69
2021/12/11 07:04:02;;;;;;;3.30;3.00;;;16.10;67.50;;;;;;5047576;28;44128;-69
2021/12/11 07:06:31;;;;;;;3.43;3.10;;;16.20;67.20;;;;;;5047483;28;43934;-69
2021/12/11 07:09:00;;;;;;;2.60;2.40;;;16.20;66.80;;;;;;5047941;28;43396;-68
2021/12/11 07:11:28;;;;;;;2.70;2.60;;;16.20;66.80;;;;;;5048024;28;43889;-69
2021/12/11 07:13:56;;;;;;;2.77;2.57;;;16.20;67.00;;;;;;5047021;28;44659;-69
2021/12/11 07:16:24;;;;;;;2.70;2.60;;;16.10;67.00;;;;;;5047274;28;43865;-69
2021/12/11 07:18:52;;;;;;;2.90;2.70;;;16.10;67.20;;;;;;5029192;28;43358;-69
2021/12/11 07:21:21;;;;;;;2.47;2.37;;;16.10;67.40;;;;;;5047614;28;43519;-69
2021/12/11 07:23:49;;;;;;;2.80;2.60;;;16.00;67.40;;;;;;5046212;28;43957;-70
2021/12/11 07:26:19;;;;;;;3.23;3.03;;;16.00;67.60;;;;;;5047257;28;43780;-69
2021/12/11 07:28:53;;;;;;;2.90;2.57;;;16.00;67.70;;;;;;5047233;28;44023;-69
2021/12/11 07:31:22;;;;;;;2.50;2.40;;;16.00;67.70;;;;;;5047956;28;44054;-69
2021/12/11 07:33:50;;;;;;;2.80;2.70;;;16.00;67.70;;;;;;5046931;28;44024;-68
2021/12/11 07:36:19;;;;;;;3.10;2.77;;;15.90;67.60;;;;;;5028727;28;44404;-69
2021/12/11 07:38:48;;;;;;;3.27;3.07;;;16.00;68.50;;;;;;5028999;28;44151;-68
2021/12/11 07:41:17;;;;;;;3.63;2.90;;;15.90;68.40;;;;;;5047190;28;43962;-69
2021/12/11 07:43:45;;;;;;;2.80;2.60;;;16.00;68.00;;;;;;5046704;28;43962;-69
2021/12/11 07:46:15;;;;;;;2.60;2.50;;;16.00;67.70;;;;;;5047004;28;43894;-69
2021/12/11 07:48:43;;;;;;;2.80;2.60;;;16.20;67.40;;;;;;5047206;28;43937;-70
2021/12/11 07:51:12;;;;;;;2.83;2.63;;;16.30;66.90;;;;;;5047450;28;43996;-69
2021/12/11 07:53:40;;;;;;;2.93;2.73;;;16.40;66.40;;;;;;5028380;28;46273;-68
2021/12/11 07:56:10;;;;;;;3.03;2.80;;;16.50;66.20;;;;;;5046577;28;43834;-68
2021/12/11 07:58:37;;;;;;;2.63;2.47;;;16.50;66.10;;;;;;5046762;28;43443;-70
2021/12/11 08:01:07;;;;;;;2.40;2.30;;;16.40;66.20;;;;;;5047170;28;44083;-69
2021/12/11 08:03:36;;;;;;;2.90;2.80;;;16.40;66.40;;;;;;5046683;28;44016;-68
2021/12/11 08:06:04;;;;;;;2.80;2.70;;;16.30;66.50;;;;;;5045750;28;44488;-69
2021/12/11 08:08:32;;;;;;;2.73;2.60;;;16.30;66.70;;;;;;5046837;28;43898;-69
2021/12/11 08:11:01;;;;;;;2.70;2.60;;;16.20;66.90;;;;;;5047135;28;43955;-69
2021/12/11 08:13:31;;;;;;;2.60;2.50;;;16.20;67.00;;;;;;5028399;28;45715;-69
2021/12/11 08:15:59;;;;;;;2.53;2.33;;;16.10;67.10;;;;;;5046273;28;43985;-68
2021/12/11 08:18:27;;;;;;;2.47;2.37;;;16.10;67.20;;;;;;5046453;28;43981;-69
2021/12/11 08:20:55;;;;;;;3.00;2.70;;;16.10;67.20;;;;;;5046681;28;44002;-69
2021/12/11 08:23:23;;;;;;;2.67;2.47;;;16.10;67.30;;;;;;5046048;28;44684;-69
2021/12/11 08:25:51;;;;;;;2.50;2.40;;;16.10;67.60;;;;;;5046022;28;43450;-69
2021/12/11 08:28:21;;;;;;;2.47;2.37;;;16.10;67.40;;;;;;5046255;28;44027;-70
2021/12/11 08:30:51;;;;;;;2.87;2.70;;;16.20;67.10;;;;;;5046616;28;43946;-69
2021/12/11 08:33:19;;;;;;;2.70;2.60;;;16.30;66.70;;;;;;5045867;28;44083;-69
2021/12/11 08:35:47;;;;;;;2.57;2.47;;;16.30;66.40;;;;;;5044769;28;43948;-69
2021/12/11 08:38:15;;;;;;;2.53;2.43;;;16.30;66.50;;;;;;5046645;28;43505;-69
2021/12/11 08:40:44;;;;;;;2.37;2.27;;;16.30;66.80;;;;;;5046914;28;43613;-69
2021/12/11 08:43:13;;;;;;;2.60;2.50;;;16.20;66.80;;;;;;5046039;28;43886;-68
2021/12/11 08:45:50;;;;;;;2.37;2.27;;;16.20;67.00;;;;;;5045447;28;43970;-69
2021/12/11 08:48:22;;;;;;;2.63;2.53;;;16.10;67.00;;;;;;5045631;28;43396;-69
2021/12/11 08:50:52;;;;;;;2.50;2.40;;;16.10;67.20;;;;;;5046000;28;43396;-69
2021/12/11 08:53:20;;;;;;;2.53;2.33;;;16.10;67.20;;;;;;5045162;28;44004;-69
2021/12/11 08:55:49;;;;;;;2.40;2.30;;;16.10;67.30;;;;;;5045531;28;43992;-68
2021/12/11 08:58:18;;;;;;;2.50;2.33;;;16.10;67.40;;;;;;5045867;28;44012;-68
2021/12/11 09:00:48;;;;;;;2.80;2.60;;;16.00;67.40;;;;;;5046023;28;43519;-69
2021/12/11 09:03:19;;;;;;;2.20;2.17;;;16.00;67.40;;;;;;5045609;28;43889;-70
2021/12/11 09:05:51;;;;;;;2.23;2.13;;;16.00;67.50;;;;;;5045219;28;44109;-69
2021/12/11 09:08:20;;;;;;;2.03;2.03;;;16.10;67.60;;;;;;5028213;28;44032;-69
2021/12/11 09:10:50;;;;;;;2.40;2.30;;;16.20;67.30;;;;;;5046093;28;43885;-69
2021/12/11 09:13:20;;;;;;;2.70;2.50;;;16.20;66.90;;;;;;5045635;28;43969;-69
2021/12/11 09:15:50;;;;;;;2.77;2.57;;;16.20;66.70;;;;;;5045462;28;44021;-69
2021/12/11 09:18:19;;;;;;;2.50;2.40;;;16.20;66.90;;;;;;5027722;28;43973;-68
2021/12/11 09:20:51;;;;;;;2.40;2.30;;;16.20;66.90;;;;;;5027861;28;43583;-68
2021/12/11 09:23:24;;;;;;;2.50;2.40;;;16.20;67.10;;;;;;5045718;28;44047;-69
2021/12/11 09:25:53;;;;;;;2.27;2.17;;;16.10;67.00;;;;;;5045489;28;44008;-69
2021/12/11 09:28:23;;;;;;;2.50;2.40;;;16.10;67.20;;;;;;5045515;28;44109;-69
2021/12/11 09:30:54;;;;;;;2.20;2.10;;;16.10;67.30;;;;;;5045813;28;43956;-69
2021/12/11 09:33:23;;;;;;;2.33;2.23;;;16.10;67.40;;;;;;5045500;28;44036;-70
2021/12/11 09:35:54;;;;;;;2.37;2.27;;;16.10;67.50;;;;;;5045146;28;43867;-70
2021/12/11 09:38:23;;;;;;;2.37;2.27;;;16.00;67.50;;;;;;5045653;28;43967;-69
2021/12/11 09:40:57;;;;;;;2.20;2.10;;;16.00;67.50;;;;;;5045670;28;44271;-69
2021/12/11 09:43:42;;;;;;;2.03;2.03;;;16.00;67.50;;;;;;5039423;28;43920;-68
2021/12/11 09:46:13;;;;;;;2.40;2.30;;;16.00;67.70;;;;;;5045996;28;43947;-69
2021/12/11 09:48:41;;;;;;;2.30;2.20;;;16.00;67.80;;;;;;5031013;28;43970;-68
2021/12/11 09:51:12;;;;;;;2.40;2.30;;;16.10;67.70;;;;;;5049284;28;44027;-69
2021/12/11 09:53:42;;;;;;;2.47;2.37;;;16.20;67.30;;;;;;5049085;28;44000;-69
2021/12/11 09:56:20;;;;;;;2.07;2.07;;;16.30;66.80;;;;;;5048782;28;44072;-69
2021/12/11 09:58:49;;;;;;;2.30;2.20;;;16.40;66.40;;;;;;5030563;28;44038;-68
2021/12/11 10:01:19;;;;;;;2.20;2.10;;;16.50;66.30;;;;;;5048835;28;44027;-68
2021/12/11 10:03:49;;;;;;;2.40;2.30;;;16.40;66.20;;;;;;5048088;28;44010;-69
2021/12/11 10:06:38;;;;;;;2.53;2.43;;;16.40;66.50;;;;;;5029946;28;45025;-69
2021/12/11 10:09:17;;;;;;;2.30;2.20;;;16.30;66.60;;;;;;5048509;28;43898;-69
2021/12/11 10:11:54;;;;;;;2.10;2.00;;;16.30;66.90;;;;;;5049158;28;44043;-69
2021/12/11 10:14:25;;;;;;;2.03;2.03;;;16.20;67.00;;;;;;5048532;28;44029;-70
2021/12/11 10:16:55;;;;;;;2.43;2.37;;;16.20;67.20;;;;;;5048216;28;43960;-68
2021/12/11 10:19:28;;;;;;;2.40;2.30;;;16.10;67.20;;;;;;5048360;28;44024;-68
2021/12/11 10:22:01;;;;;;;2.50;2.40;;;16.10;67.30;;;;;;5048870;28;43933;-69
2021/12/11 10:24:29;;;;;;;2.43;2.33;;;16.10;67.40;;;;;;5042293;28;43968;-70
2021/12/11 10:26:58;;;;;;;2.37;2.27;;;16.10;67.40;;;;;;5048133;28;44027;-69
2021/12/11 10:29:27;;;;;;;1.90;1.90;;;16.10;67.70;;;;;;5048298;28;43993;-69
2021/12/11 10:31:56;;;;;;;2.20;2.20;;;16.10;67.50;;;;;;5048389;28;43966;-68
2021/12/11 10:34:26;;;;;;;2.40;2.30;;;16.20;67.20;;;;;;5047983;28;45126;-69
2021/12/11 10:36:56;;;;;;;2.47;2.37;;;16.30;66.70;;;;;;5047678;28;43885;-69
2021/12/11 10:39:24;;;;;;;2.03;2.00;;;16.40;66.50;;;;;;5048206;28;44049;-69
2021/12/11 10:41:52;;;;;;;2.10;2.03;;;16.40;66.40;;;;;;5030060;28;43962;-69
2021/12/11 10:44:22;;;;;;;2.20;2.10;;;16.30;66.60;;;;;;5047755;28;44028;-69
2021/12/11 10:46:53;;;;;;;2.17;2.17;;;16.30;66.80;;;;;;5047938;28;43454;-69
2021/12/11 10:49:21;;;;;;;2.27;2.17;;;16.20;66.90;;;;;;5047666;28;43994;-69
2021/12/11 10:51:54;;;;;;;2.47;2.40;;;16.20;67.00;;;;;;5029799;28;44056;-70
2021/12/11 10:54:22;;;;;;;2.10;2.10;;;16.10;67.10;;;;;;5047838;28;43963;-69
2021/12/11 10:56:50;;;;;;;2.57;2.47;;;16.10;67.30;;;;;;5029225;28;46357;-68
2021/12/11 10:59:21;;;;;;;2.00;2.00;;;16.10;67.40;;;;;;5046570;28;43953;-68
2021/12/11 11:01:51;;;;;;;2.03;2.03;;;16.10;67.50;;;;;;5047835;28;44082;-69
2021/12/11 11:04:22;;;;;;;2.30;2.20;;;16.10;67.50;;;;;;5028761;28;44299;-68
2021/12/11 11:06:51;;;;;;;1.97;1.90;;;16.00;67.50;;;;;;5047612;28;43854;-69
2021/12/11 11:09:19;;;;;;;2.10;2.00;;;16.00;67.60;;;;;;5047551;28;44028;-69
2021/12/11 11:11:48;;;;;;;2.10;2.10;;;16.00;67.70;;;;;;5047789;28;44089;-68
2021/12/11 11:14:17;;;;;;;2.07;1.90;;;16.10;67.60;;;;;;5047272;28;45135;-69
2021/12/11 11:16:46;;;;;;;2.30;2.10;;;16.20;67.20;;;;;;5047642;28;43415;-69
2021/12/11 11:19:16;;;;;;;2.20;2.20;;;16.30;66.70;;;;;;5047574;28;43473;-69
2021/12/11 11:21:45;;;;;;;2.20;2.10;;;16.40;66.50;;;;;;5047856;28;43854;-68
2021/12/11 11:24:14;;;;;;;1.93;1.93;;;16.40;66.40;;;;;;5029185;28;45129;-69
2021/12/11 11:26:44;;;;;;;2.17;2.07;;;16.30;66.60;;;;;;5047115;28;44014;-69
2021/12/11 11:29:13;;;;;;;5.10;4.70;;;16.30;66.80;;;;;;5047646;28;44371;-69
2021/12/11 11:31:42;;;;;;;13.57;9.33;;;16.20;66.80;;;;;;5047611;28;44068;-69
2021/12/11 11:34:11;;;;;;;20.70;12.80;;;16.20;66.90;;;;;;5046901;28;43787;-69
2021/12/11 11:36:40;;;;;;;22.90;14.47;;;16.10;67.00;;;;;;5046840;28;44008;-69
2021/12/11 11:39:14;;;;;;;28.10;17.17;;;16.10;67.00;;;;;;5047724;28;44035;-69
2021/12/11 11:41:44;;;;;;;26.00;15.80;;;16.10;67.20;;;;;;5041218;28;43925;-69
2021/12/11 11:44:12;;;;;;;25.40;16.07;;;16.10;67.20;;;;;;5046766;28;44003;-69
2021/12/11 11:46:41;;;;;;;20.70;12.77;;;16.10;67.30;;;;;;5046706;28;43897;-69
2021/12/11 11:49:09;;;;;;;20.37;12.57;;;16.10;67.40;;;;;;5047020;28;43348;-69
2021/12/11 11:51:39;;;;;;;16.87;11.93;;;16.00;67.60;;;;;;5047130;28;44031;-69
2021/12/11 11:54:10;;;;;;;17.17;11.87;;;16.10;67.50;;;;;;5046574;28;43995;-69
2021/12/11 11:56:40;;;;;;;20.67;12.77;;;16.20;67.10;;;;;;5046481;28;43893;-69
2021/12/11 11:59:08;;;;;;;17.73;12.87;;;16.20;66.80;;;;;;5046668;28;43814;-69
2021/12/11 12:01:38;;;;;;;20.40;13.27;;;16.30;67.00;;;;;;5028873;28;44147;-69
2021/12/11 12:04:06;;;;;;;20.03;13.37;;;16.20;67.00;;;;;;5028024;28;45243;-69
2021/12/11 12:06:36;;;;;;;19.77;12.87;;;16.20;67.20;;;;;;5028132;28;45418;-69
2021/12/11 12:09:06;;;;;;;21.97;13.87;;;16.20;67.40;;;;;;5028313;28;44045;-70
2021/12/11 12:11:35;;;;;;;22.90;15.60;;;16.10;67.40;;;;;;5046889;28;43910;-69
2021/12/11 12:14:05;;;;;;;22.80;15.77;;;16.10;67.40;;;;;;5046399;28;44026;-69
2021/12/11 12:16:34;;;;;;;26.40;17.40;;;16.10;67.60;;;;;;5046627;28;43945;-69
2021/12/11 12:19:02;;;;;;;25.73;17.40;;;16.10;67.70;;;;;;5046456;28;44453;-69
2021/12/11 12:21:30;;;;;;;24.90;16.83;;;16.00;67.80;;;;;;5046819;28;44106;-69
2021/12/11 12:23:58;;;;;;;23.87;17.40;;;16.00;67.90;;;;;;5046159;28;44205;-69
2021/12/11 12:26:27;;;;;;;24.47;17.80;;;16.00;68.00;;;;;;5046118;28;43917;-69
2021/12/11 12:28:57;;;;;;;29.27;18.00;;;16.00;68.00;;;;;;5046233;28;44105;-69
2021/12/11 12:31:27;;;;;;;29.53;18.70;;;16.00;68.20;;;;;;5046583;28;43470;-70
2021/12/11 12:33:55;;;;;;;25.70;18.67;;;16.10;68.30;;;;;;5045993;28;44067;-69
2021/12/11 12:36:23;;;;;;;26.03;19.00;;;16.10;68.00;;;;;;5046035;28;43744;-69
2021/12/11 12:38:51;;;;;;;30.73;19.43;;;16.30;67.70;;;;;;5046259;28;43920;-69
2021/12/11 12:41:21;;;;;;;30.70;20.40;;;16.40;67.20;;;;;;5046530;28;43503;-69
2021/12/11 12:46:59;;;;;;;31.50;20.93;;;16.40;66.70;;;;;;5045862;28;43648;-69
2021/12/11 12:49:30;;;;;;;31.93;22.10;;;16.40;67.00;;;;;;5046239;28;43951;-69
2021/12/11 12:51:59;;;;;;;31.23;21.93;;;16.30;67.20;;;;;;5046659;28;43894;-70
2021/12/11 12:54:26;;;;;;;31.77;22.37;;;16.30;67.40;;;;;;5045891;28;43901;-70
2021/12/11 12:56:57;;;;;;;32.93;21.47;;;16.20;67.50;;;;;;5045790;28;44041;-69
2021/12/11 12:59:27;;;;;;;28.87;21.47;;;16.20;67.70;;;;;;5027978;28;44029;-70
2021/12/11 13:01:57;;;;;;;30.30;21.83;;;16.20;67.70;;;;;;5046180;28;43841;-69
2021/12/11 13:04:26;;;;;;;33.40;22.33;;;16.10;67.80;;;;;;5045206;28;43940;-70